sensor_id;sensor_type;location;lat;lon;timestamp;temperature;humidity
46438;DHT22;32137;48.728;9.142;2023-04-03T00:02:13;5.90;99.90
46438;DHT22;32137;48.728;9.142;2023-04-03T00:04:39;5.90;99.90
46438;DHT22;32137;48.728;9.142;2023-04-03T00:07:05;6.00;99.90
46438;DHT22;32137;48.728;9.142;2023-04-03T00:09:30;6.00;99.90
46438;DHT22;32137;48.728;9.142;2023-04-03T00:11:56;5.90;99.90
46438;DHT22;32137;48.728;9.142;2023-04-03T00:14:21;5.90;99.90
46438;DHT22;32137;48.728;9.142;2023-04-03T00:16:47;5.90;99.90
46438;DHT22;32137;48.728;9.142;2023-04-03T00:19:12;5.80;99.90
46438;DHT22;32137;48.728;9.142;2023-04-03T00:21:38;5.80;99.90
46438;DHT22;32137;48.728;9.142;2023-04-03T00:24:03;5.80;99.90
46438;DHT22;32137;48.728;9.142;2023-04-03T00:26:29;5.80;99.90
46438;DHT22;32137;48.728;9.142;2023-04-03T00:28:55;5.80;99.90
46438;DHT22;32137;48.728;9.142;2023-04-03T00:31:21;5.70;99.90
46438;DHT22;32137;48.728;9.142;2023-04-03T00:33:46;5.70;99.90
46438;DHT22;32137;48.728;9.142;2023-04-03T00:36:12;5.60;99.90
46438;DHT22;32137;48.728;9.142;2023-04-03T00:38:37;5.70;99.90
46438;DHT22;32137;48.728;9.142;2023-04-03T00:41:03;5.60;99.90
46438;DHT22;32137;48.728;9.142;2023-04-03T00:43:29;5.60;99.90
46438;DHT22;32137;48.728;9.142;2023-04-03T00:45:55;5.50;99.90
46438;DHT22;32137;48.728;9.142;2023-04-03T00:48:31;5.60;99.90
46438;DHT22;32137;48.728;9.142;2023-04-03T00:50:57;5.60;99.90
46438;DHT22;32137;48.728;9.142;2023-04-03T00:53:28;5.60;99.90
46438;DHT22;32137;48.728;9.142;2023-04-03T00:55:55;5.60;99.90
46438;DHT22;32137;48.728;9.142;2023-04-03T00:58:21;5.50;99.90
46438;DHT22;32137;48.728;9.142;2023-04-03T01:00:50;5.50;99.90
46438;DHT22;32137;48.728;9.142;2023-04-03T01:03:21;5.40;99.90
46438;DHT22;32137;48.728;9.142;2023-04-03T01:05:47;5.50;99.90
46438;DHT22;32137;48.728;9.142;2023-04-03T01:08:12;5.50;99.90
46438;DHT22;32137;48.728;9.142;2023-04-03T01:10:38;5.40;99.90
46438;DHT22;32137;48.728;9.142;2023-04-03T01:13:16;5.30;99.90
46438;DHT22;32137;48.728;9.142;2023-04-03T01:15:42;5.40;99.90
46438;DHT22;32137;48.728;9.142;2023-04-03T01:18:08;5.40;99.90
46438;DHT22;32137;48.728;9.142;2023-04-03T01:23:23;5.30;99.90
46438;DHT22;32137;48.728;9.142;2023-04-03T01:25:51;5.30;99.90
46438;DHT22;32137;48.728;9.142;2023-04-03T01:28:18;5.20;99.90
46438;DHT22;32137;48.728;9.142;2023-04-03T01:33:19;5.20;99.90
46438;DHT22;32137;48.728;9.142;2023-04-03T01:35:44;5.10;99.90
46438;DHT22;32137;48.728;9.142;2023-04-03T01:38:10;5.20;99.90
46438;DHT22;32137;48.728;9.142;2023-04-03T01:40:36;5.10;99.90
46438;DHT22;32137;48.728;9.142;2023-04-03T01:43:02;5.20;99.90
46438;DHT22;32137;48.728;9.142;2023-04-03T01:45:27;5.10;99.90
46438;DHT22;32137;48.728;9.142;2023-04-03T01:47:52;5.20;99.90
46438;DHT22;32137;48.728;9.142;2023-04-03T01:50:18;5.10;99.90
46438;DHT22;32137;48.728;9.142;2023-04-03T01:52:43;5.10;99.90
46438;DHT22;32137;48.728;9.142;2023-04-03T01:55:09;5.20;99.90
46438;DHT22;32137;48.728;9.142;2023-04-03T01:57:34;5.20;99.90
46438;DHT22;32137;48.728;9.142;2023-04-03T02:00:00;5.20;99.90
46438;DHT22;32137;48.728;9.142;2023-04-03T02:02:25;5.20;99.90
46438;DHT22;32137;48.728;9.142;2023-04-03T02:04:51;5.20;99.90
46438;DHT22;32137;48.728;9.142;2023-04-03T02:07:16;5.20;99.90
46438;DHT22;32137;48.728;9.142;2023-04-03T02:09:41;5.20;99.90
46438;DHT22;32137;48.728;9.142;2023-04-03T02:12:07;5.10;99.90
46438;DHT22;32137;48.728;9.142;2023-04-03T02:14:33;5.20;99.90
46438;DHT22;32137;48.728;9.142;2023-04-03T02:16:59;5.20;99.90
46438;DHT22;32137;48.728;9.142;2023-04-03T02:19:25;5.20;99.90
46438;DHT22;32137;48.728;9.142;2023-04-03T02:21:51;5.30;99.90
46438;DHT22;32137;48.728;9.142;2023-04-03T02:24:16;5.20;99.90
46438;DHT22;32137;48.728;9.142;2023-04-03T02:26:42;5.20;99.90
46438;DHT22;32137;48.728;9.142;2023-04-03T02:29:07;5.20;99.90
46438;DHT22;32137;48.728;9.142;2023-04-03T02:31:33;5.00;99.90
46438;DHT22;32137;48.728;9.142;2023-04-03T02:33:58;5.00;99.90
46438;DHT22;32137;48.728;9.142;2023-04-03T02:36:24;5.10;99.90
46438;DHT22;32137;48.728;9.142;2023-04-03T02:38:49;5.00;99.90
46438;DHT22;32137;48.728;9.142;2023-04-03T02:41:15;5.10;99.90
46438;DHT22;32137;48.728;9.142;2023-04-03T02:43:41;5.00;99.90
46438;DHT22;32137;48.728;9.142;2023-04-03T02:46:06;5.00;99.90
46438;DHT22;32137;48.728;9.142;2023-04-03T02:48:32;5.20;99.90
46438;DHT22;32137;48.728;9.142;2023-04-03T02:50:57;5.10;99.90
46438;DHT22;32137;48.728;9.142;2023-04-03T02:53:23;5.10;99.90
46438;DHT22;32137;48.728;9.142;2023-04-03T02:55:48;5.10;99.90
46438;DHT22;32137;48.728;9.142;2023-04-03T02:58:14;5.00;99.90
46438;DHT22;32137;48.728;9.142;2023-04-03T03:00:39;5.00;99.90
46438;DHT22;32137;48.728;9.142;2023-04-03T03:03:05;5.10;99.90
46438;DHT22;32137;48.728;9.142;2023-04-03T03:05:31;5.10;99.90
46438;DHT22;32137;48.728;9.142;2023-04-03T03:07:56;4.90;99.90
46438;DHT22;32137;48.728;9.142;2023-04-03T03:10:22;4.90;99.90
46438;DHT22;32137;48.728;9.142;2023-04-03T03:12:47;5.00;99.90
46438;DHT22;32137;48.728;9.142;2023-04-03T03:15:13;4.80;99.90
46438;DHT22;32137;48.728;9.142;2023-04-03T03:17:38;4.90;99.90
46438;DHT22;32137;48.728;9.142;2023-04-03T03:20:04;4.90;99.90
46438;DHT22;32137;48.728;9.142;2023-04-03T03:22:30;4.80;99.90
46438;DHT22;32137;48.728;9.142;2023-04-03T03:24:55;5.00;99.90
46438;DHT22;32137;48.728;9.142;2023-04-03T03:27:21;4.90;99.90
46438;DHT22;32137;48.728;9.142;2023-04-03T03:29:46;4.70;99.90
46438;DHT22;32137;48.728;9.142;2023-04-03T03:32:12;4.80;99.90
46438;DHT22;32137;48.728;9.142;2023-04-03T03:34:37;4.80;99.90
46438;DHT22;32137;48.728;9.142;2023-04-03T03:37:03;4.90;99.90
46438;DHT22;32137;48.728;9.142;2023-04-03T03:39:28;4.80;99.90
46438;DHT22;32137;48.728;9.142;2023-04-03T03:41:54;4.80;99.90
46438;DHT22;32137;48.728;9.142;2023-04-03T03:44:20;4.90;99.90
46438;DHT22;32137;48.728;9.142;2023-04-03T03:49:23;4.90;99.90
46438;DHT22;32137;48.728;9.142;2023-04-03T03:51:49;4.90;99.90
46438;DHT22;32137;48.728;9.142;2023-04-03T03:54:15;4.70;99.90
46438;DHT22;32137;48.728;9.142;2023-04-03T03:56:41;4.70;99.90
46438;DHT22;32137;48.728;9.142;2023-04-03T03:59:06;4.80;99.90
46438;DHT22;32137;48.728;9.142;2023-04-03T04:01:32;4.70;99.90
46438;DHT22;32137;48.728;9.142;2023-04-03T04:03:58;4.80;99.90
46438;DHT22;32137;48.728;9.142;2023-04-03T04:06:23;4.80;99.90
46438;DHT22;32137;48.728;9.142;2023-04-03T04:08:49;4.70;99.90
46438;DHT22;32137;48.728;9.142;2023-04-03T04:11:14;4.70;99.90
46438;DHT22;32137;48.728;9.142;2023-04-03T04:13:40;4.70;99.90
46438;DHT22;32137;48.728;9.142;2023-04-03T04:16:06;4.80;99.90
46438;DHT22;32137;48.728;9.142;2023-04-03T04:18:32;4.80;99.90
46438;DHT22;32137;48.728;9.142;2023-04-03T04:20:57;4.80;99.90
46438;DHT22;32137;48.728;9.142;2023-04-03T04:23:23;4.80;99.90
46438;DHT22;32137;48.728;9.142;2023-04-03T04:25:48;4.60;99.90
46438;DHT22;32137;48.728;9.142;2023-04-03T04:28:14;4.60;99.90
46438;DHT22;32137;48.728;9.142;2023-04-03T04:30:39;4.70;99.90
46438;DHT22;32137;48.728;9.142;2023-04-03T04:33:05;4.70;99.90
46438;DHT22;32137;48.728;9.142;2023-04-03T04:35:32;4.60;99.90
46438;DHT22;32137;48.728;9.142;2023-04-03T04:37:58;4.70;99.90
46438;DHT22;32137;48.728;9.142;2023-04-03T04:40:23;4.70;99.90
46438;DHT22;32137;48.728;9.142;2023-04-03T04:42:49;4.70;99.90
46438;DHT22;32137;48.728;9.142;2023-04-03T04:45:14;4.60;99.90
46438;DHT22;32137;48.728;9.142;2023-04-03T04:47:40;4.50;99.90
46438;DHT22;32137;48.728;9.142;2023-04-03T04:50:06;4.50;99.90
46438;DHT22;32137;48.728;9.142;2023-04-03T04:52:31;4.50;99.90
46438;DHT22;32137;48.728;9.142;2023-04-03T04:54:57;4.60;99.90
46438;DHT22;32137;48.728;9.142;2023-04-03T04:57:22;4.60;99.90
46438;DHT22;32137;48.728;9.142;2023-04-03T04:59:47;4.50;99.90
46438;DHT22;32137;48.728;9.142;2023-04-03T05:02:13;4.40;99.90
46438;DHT22;32137;48.728;9.142;2023-04-03T05:04:38;4.50;99.90
46438;DHT22;32137;48.728;9.142;2023-04-03T05:07:04;4.30;99.90
46438;DHT22;32137;48.728;9.142;2023-04-03T05:09:29;4.50;99.90
46438;DHT22;32137;48.728;9.142;2023-04-03T05:11:55;4.40;99.90
46438;DHT22;32137;48.728;9.142;2023-04-03T05:14:21;4.30;99.90
46438;DHT22;32137;48.728;9.142;2023-04-03T05:16:47;4.50;99.90
46438;DHT22;32137;48.728;9.142;2023-04-03T05:19:12;4.50;99.90
46438;DHT22;32137;48.728;9.142;2023-04-03T05:21:38;4.50;99.90
46438;DHT22;32137;48.728;9.142;2023-04-03T05:24:04;4.40;99.90
46438;DHT22;32137;48.728;9.142;2023-04-03T05:26:30;4.50;99.90
46438;DHT22;32137;48.728;9.142;2023-04-03T05:28:55;4.50;99.90
46438;DHT22;32137;48.728;9.142;2023-04-03T05:31:21;4.50;99.90
46438;DHT22;32137;48.728;9.142;2023-04-03T05:33:47;4.40;99.90
46438;DHT22;32137;48.728;9.142;2023-04-03T05:36:12;4.50;99.90
46438;DHT22;32137;48.728;9.142;2023-04-03T05:38:38;4.50;99.90
46438;DHT22;32137;48.728;9.142;2023-04-03T05:41:04;4.50;99.90
46438;DHT22;32137;48.728;9.142;2023-04-03T05:43:29;4.50;99.90
46438;DHT22;32137;48.728;9.142;2023-04-03T05:45:55;4.60;99.90
46438;DHT22;32137;48.728;9.142;2023-04-03T05:48:20;4.60;99.90
46438;DHT22;32137;48.728;9.142;2023-04-03T05:50:46;4.60;99.90
46438;DHT22;32137;48.728;9.142;2023-04-03T05:53:16;4.50;99.90
46438;DHT22;32137;48.728;9.142;2023-04-03T05:55:43;4.60;99.90
46438;DHT22;32137;48.728;9.142;2023-04-03T05:58:08;4.50;99.90
46438;DHT22;32137;48.728;9.142;2023-04-03T06:00:33;4.50;99.90
46438;DHT22;32137;48.728;9.142;2023-04-03T06:02:59;4.40;99.90
46438;DHT22;32137;48.728;9.142;2023-04-03T06:05:25;4.50;99.90
46438;DHT22;32137;48.728;9.142;2023-04-03T06:07:50;4.50;99.90
46438;DHT22;32137;48.728;9.142;2023-04-03T06:10:16;4.40;99.90
46438;DHT22;32137;48.728;9.142;2023-04-03T06:12:41;4.40;99.90
46438;DHT22;32137;48.728;9.142;2023-04-03T06:15:07;4.30;99.90
46438;DHT22;32137;48.728;9.142;2023-04-03T06:17:33;4.40;99.90
46438;DHT22;32137;48.728;9.142;2023-04-03T06:19:58;4.50;99.90
46438;DHT22;32137;48.728;9.142;2023-04-03T06:22:24;4.40;99.90
46438;DHT22;32137;48.728;9.142;2023-04-03T06:24:51;4.40;99.90
46438;DHT22;32137;48.728;9.142;2023-04-03T06:27:16;4.50;99.90
46438;DHT22;32137;48.728;9.142;2023-04-03T06:29:42;4.50;99.90
46438;DHT22;32137;48.728;9.142;2023-04-03T06:32:08;4.60;99.90
46438;DHT22;32137;48.728;9.142;2023-04-03T06:34:33;4.50;99.90
46438;DHT22;32137;48.728;9.142;2023-04-03T06:36:59;4.60;99.90
46438;DHT22;32137;48.728;9.142;2023-04-03T06:39:25;4.70;99.90
46438;DHT22;32137;48.728;9.142;2023-04-03T06:41:51;4.60;99.90
46438;DHT22;32137;48.728;9.142;2023-04-03T06:44:16;4.70;99.90
46438;DHT22;32137;48.728;9.142;2023-04-03T06:46:42;4.70;99.90
46438;DHT22;32137;48.728;9.142;2023-04-03T06:49:08;4.60;99.90
46438;DHT22;32137;48.728;9.142;2023-04-03T06:51:36;4.80;99.90
46438;DHT22;32137;48.728;9.142;2023-04-03T06:54:02;4.80;99.90
46438;DHT22;32137;48.728;9.142;2023-04-03T06:56:28;4.90;99.90
46438;DHT22;32137;48.728;9.142;2023-04-03T06:58:55;4.90;99.90
46438;DHT22;32137;48.728;9.142;2023-04-03T07:01:23;5.00;99.90
46438;DHT22;32137;48.728;9.142;2023-04-03T07:03:48;4.90;99.90
46438;DHT22;32137;48.728;9.142;2023-04-03T07:06:15;4.90;99.90
46438;DHT22;32137;48.728;9.142;2023-04-03T07:08:41;4.70;99.90
46438;DHT22;32137;48.728;9.142;2023-04-03T07:11:08;4.50;99.90
46438;DHT22;32137;48.728;9.142;2023-04-03T07:13:33;4.60;99.90
46438;DHT22;32137;48.728;9.142;2023-04-03T07:15:59;4.60;99.90
46438;DHT22;32137;48.728;9.142;2023-04-03T07:18:24;4.60;99.90
46438;DHT22;32137;48.728;9.142;2023-04-03T07:20:50;4.80;99.90
46438;DHT22;32137;48.728;9.142;2023-04-03T07:23:16;4.80;99.90
46438;DHT22;32137;48.728;9.142;2023-04-03T07:25:43;4.80;99.90
46438;DHT22;32137;48.728;9.142;2023-04-03T07:28:08;4.90;99.90
46438;DHT22;32137;48.728;9.142;2023-04-03T07:30:34;4.90;99.90
46438;DHT22;32137;48.728;9.142;2023-04-03T07:33:00;5.00;99.90
46438;DHT22;32137;48.728;9.142;2023-04-03T07:35:26;5.00;99.90
46438;DHT22;32137;48.728;9.142;2023-04-03T07:37:51;4.90;99.90
46438;DHT22;32137;48.728;9.142;2023-04-03T07:40:17;4.80;99.90
46438;DHT22;32137;48.728;9.142;2023-04-03T07:42:43;4.90;99.90
46438;DHT22;32137;48.728;9.142;2023-04-03T07:45:08;5.00;99.90
46438;DHT22;32137;48.728;9.142;2023-04-03T07:47:34;5.20;99.90
46438;DHT22;32137;48.728;9.142;2023-04-03T07:50:00;4.90;99.90
46438;DHT22;32137;48.728;9.142;2023-04-03T07:52:26;5.10;99.90
46438;DHT22;32137;48.728;9.142;2023-04-03T07:54:51;5.10;99.90
46438;DHT22;32137;48.728;9.142;2023-04-03T07:57:16;5.20;99.90
46438;DHT22;32137;48.728;9.142;2023-04-03T07:59:42;5.20;99.90
46438;DHT22;32137;48.728;9.142;2023-04-03T08:02:09;5.20;99.90
46438;DHT22;32137;48.728;9.142;2023-04-03T08:04:34;5.40;99.90
46438;DHT22;32137;48.728;9.142;2023-04-03T08:07:00;5.30;99.90
46438;DHT22;32137;48.728;9.142;2023-04-03T08:09:25;5.40;99.90
46438;DHT22;32137;48.728;9.142;2023-04-03T08:11:51;5.50;99.90
46438;DHT22;32137;48.728;9.142;2023-04-03T08:14:19;5.50;99.90
46438;DHT22;32137;48.728;9.142;2023-04-03T08:16:45;5.50;99.90
46438;DHT22;32137;48.728;9.142;2023-04-03T08:19:11;5.60;99.90
46438;DHT22;32137;48.728;9.142;2023-04-03T08:21:39;5.50;99.90
46438;DHT22;32137;48.728;9.142;2023-04-03T08:24:04;5.70;99.90
46438;DHT22;32137;48.728;9.142;2023-04-03T08:26:31;5.60;99.90
46438;DHT22;32137;48.728;9.142;2023-04-03T08:28:56;5.60;99.90
46438;DHT22;32137;48.728;9.142;2023-04-03T08:31:22;5.50;99.90
46438;DHT22;32137;48.728;9.142;2023-04-03T08:33:47;5.50;99.90
46438;DHT22;32137;48.728;9.142;2023-04-03T08:36:20;5.50;99.90
46438;DHT22;32137;48.728;9.142;2023-04-03T08:38:46;5.50;99.90
46438;DHT22;32137;48.728;9.142;2023-04-03T08:43:58;5.50;99.90
46438;DHT22;32137;48.728;9.142;2023-04-03T08:46:49;5.80;99.90
46438;DHT22;32137;48.728;9.142;2023-04-03T08:49:31;6.00;99.90
46438;DHT22;32137;48.728;9.142;2023-04-03T08:51:57;6.00;99.90
46438;DHT22;32137;48.728;9.142;2023-04-03T08:54:32;6.20;99.90
46438;DHT22;32137;48.728;9.142;2023-04-03T08:56:58;6.20;99.90
46438;DHT22;32137;48.728;9.142;2023-04-03T08:59:27;6.20;99.90
46438;DHT22;32137;48.728;9.142;2023-04-03T09:01:53;6.30;99.90
46438;DHT22;32137;48.728;9.142;2023-04-03T09:04:19;6.40;99.90
46438;DHT22;32137;48.728;9.142;2023-04-03T09:06:49;6.40;99.90
46438;DHT22;32137;48.728;9.142;2023-04-03T09:09:36;6.50;99.90
46438;DHT22;32137;48.728;9.142;2023-04-03T09:17:12;6.40;99.90
46438;DHT22;32137;48.728;9.142;2023-04-03T09:22:25;6.60;99.90
46438;DHT22;32137;48.728;9.142;2023-04-03T09:27:29;6.70;99.90
46438;DHT22;32137;48.728;9.142;2023-04-03T09:29:55;6.80;99.90
46438;DHT22;32137;48.728;9.142;2023-04-03T09:32:28;6.70;99.90
46438;DHT22;32137;48.728;9.142;2023-04-03T09:34:55;6.70;99.90
46438;DHT22;32137;48.728;9.142;2023-04-03T09:39:59;6.90;99.90
46438;DHT22;32137;48.728;9.142;2023-04-03T09:42:24;6.90;99.90
46438;DHT22;32137;48.728;9.142;2023-04-03T09:45:01;7.00;99.90
46438;DHT22;32137;48.728;9.142;2023-04-03T09:50:10;6.90;99.90
46438;DHT22;32137;48.728;9.142;2023-04-03T09:52:41;7.00;99.90
46438;DHT22;32137;48.728;9.142;2023-04-03T09:55:10;6.90;99.90
46438;DHT22;32137;48.728;9.142;2023-04-03T09:57:39;6.80;99.90
46438;DHT22;32137;48.728;9.142;2023-04-03T10:00:04;6.90;99.90
46438;DHT22;32137;48.728;9.142;2023-04-03T10:02:35;6.70;99.90
46438;DHT22;32137;48.728;9.142;2023-04-03T10:05:01;6.70;99.90
46438;DHT22;32137;48.728;9.142;2023-04-03T10:09:59;6.60;99.90
46438;DHT22;32137;48.728;9.142;2023-04-03T10:12:27;6.60;99.90
46438;DHT22;32137;48.728;9.142;2023-04-03T10:18:05;6.70;99.90
46438;DHT22;32137;48.728;9.142;2023-04-03T10:23:02;6.60;99.90
46438;DHT22;32137;48.728;9.142;2023-04-03T10:25:43;6.40;99.90
46438;DHT22;32137;48.728;9.142;2023-04-03T10:28:33;6.30;99.90
46438;DHT22;32137;48.728;9.142;2023-04-03T10:34:05;6.20;99.90
46438;DHT22;32137;48.728;9.142;2023-04-03T10:36:38;6.20;99.90
46438;DHT22;32137;48.728;9.142;2023-04-03T10:52:13;6.30;99.90
46438;DHT22;32137;48.728;9.142;2023-04-03T10:57:26;6.30;99.90
46438;DHT22;32137;48.728;9.142;2023-04-03T10:59:54;6.20;99.90
46438;DHT22;32137;48.728;9.142;2023-04-03T11:07:50;6.40;99.90
46438;DHT22;32137;48.728;9.142;2023-04-03T11:10:21;6.40;99.90
46438;DHT22;32137;48.728;9.142;2023-04-03T11:12:52;6.40;99.90
46438;DHT22;32137;48.728;9.142;2023-04-03T11:15:21;6.30;99.90
46438;DHT22;32137;48.728;9.142;2023-04-03T11:18:01;6.20;99.90
46438;DHT22;32137;48.728;9.142;2023-04-03T11:20:32;6.30;99.90
46438;DHT22;32137;48.728;9.142;2023-04-03T11:23:20;6.20;99.90
46438;DHT22;32137;48.728;9.142;2023-04-03T11:25:46;6.30;99.90
46438;DHT22;32137;48.728;9.142;2023-04-03T11:28:14;6.30;99.90
46438;DHT22;32137;48.728;9.142;2023-04-03T11:30:45;6.40;99.90
46438;DHT22;32137;48.728;9.142;2023-04-03T11:33:21;6.50;99.90
46438;DHT22;32137;48.728;9.142;2023-04-03T11:35:54;6.40;99.90
46438;DHT22;32137;48.728;9.142;2023-04-03T11:38:23;6.50;99.90
46438;DHT22;32137;48.728;9.142;2023-04-03T11:40:51;6.60;99.90
46438;DHT22;32137;48.728;9.142;2023-04-03T11:43:22;6.50;99.90
46438;DHT22;32137;48.728;9.142;2023-04-03T11:50:46;6.30;99.90
46438;DHT22;32137;48.728;9.142;2023-04-03T11:55:41;6.10;99.90
46438;DHT22;32137;48.728;9.142;2023-04-03T11:58:17;6.30;99.90
46438;DHT22;32137;48.728;9.142;2023-04-03T12:21:22;6.70;99.90
46438;DHT22;32137;48.728;9.142;2023-04-03T12:31:39;6.30;99.90
46438;DHT22;32137;48.728;9.142;2023-04-03T12:36:58;6.40;99.90
46438;DHT22;32137;48.728;9.142;2023-04-03T12:49:52;6.70;99.90
46438;DHT22;32137;48.728;9.142;2023-04-03T12:54:46;6.80;99.90
46438;DHT22;32137;48.728;9.142;2023-04-03T12:57:20;6.70;99.90
46438;DHT22;32137;48.728;9.142;2023-04-03T12:59:46;6.40;99.90
46438;DHT22;32137;48.728;9.142;2023-04-03T13:02:17;6.30;99.90
46438;DHT22;32137;48.728;9.142;2023-04-03T13:04:44;6.20;99.90
46438;DHT22;32137;48.728;9.142;2023-04-03T13:07:21;6.20;99.90
46438;DHT22;32137;48.728;9.142;2023-04-03T13:09:55;6.20;99.90
46438;DHT22;32137;48.728;9.142;2023-04-03T13:12:20;6.30;99.90
46438;DHT22;32137;48.728;9.142;2023-04-03T13:14:57;6.40;99.90
46438;DHT22;32137;48.728;9.142;2023-04-03T13:17:23;6.80;99.90
46438;DHT22;32137;48.728;9.142;2023-04-03T13:19:49;7.10;99.90
46438;DHT22;32137;48.728;9.142;2023-04-03T13:22:24;7.40;99.90
46438;DHT22;32137;48.728;9.142;2023-04-03T13:24:51;8.00;99.90
46438;DHT22;32137;48.728;9.142;2023-04-03T13:27:17;8.20;99.90
46438;DHT22;32137;48.728;9.142;2023-04-03T13:29:43;8.60;99.90
46438;DHT22;32137;48.728;9.142;2023-04-03T13:32:27;8.70;99.90
46438;DHT22;32137;48.728;9.142;2023-04-03T13:34:54;9.00;99.90
46438;DHT22;32137;48.728;9.142;2023-04-03T13:37:27;9.20;99.90
46438;DHT22;32137;48.728;9.142;2023-04-03T13:40:11;8.90;99.90
46438;DHT22;32137;48.728;9.142;2023-04-03T13:42:39;8.70;99.90
46438;DHT22;32137;48.728;9.142;2023-04-03T13:45:20;8.50;99.90
46438;DHT22;32137;48.728;9.142;2023-04-03T13:47:50;8.30;99.90
46438;DHT22;32137;48.728;9.142;2023-04-03T13:50:18;8.00;99.90
46438;DHT22;32137;48.728;9.142;2023-04-03T13:52:49;7.80;99.90
46438;DHT22;32137;48.728;9.142;2023-04-03T13:55:30;7.80;99.90
46438;DHT22;32137;48.728;9.142;2023-04-03T13:58:00;7.70;99.90
46438;DHT22;32137;48.728;9.142;2023-04-03T14:00:49;7.70;99.90
46438;DHT22;32137;48.728;9.142;2023-04-03T14:03:42;7.70;99.90
46438;DHT22;32137;48.728;9.142;2023-04-03T14:06:12;7.80;99.90
46438;DHT22;32137;48.728;9.142;2023-04-03T14:08:42;7.80;99.90
46438;DHT22;32137;48.728;9.142;2023-04-03T14:13:43;8.20;99.90
46438;DHT22;32137;48.728;9.142;2023-04-03T14:16:16;8.10;1.60
46438;DHT22;32137;48.728;9.142;2023-04-03T14:18:44;8.00;1.00
46438;DHT22;32137;48.728;9.142;2023-04-03T14:21:15;7.90;1.00
46438;DHT22;32137;48.728;9.142;2023-04-03T14:23:41;7.70;99.90
46438;DHT22;32137;48.728;9.142;2023-04-03T14:26:33;7.50;99.90
46438;DHT22;32137;48.728;9.142;2023-04-03T14:28:58;7.30;99.90
46438;DHT22;32137;48.728;9.142;2023-04-03T14:31:24;7.30;99.90
46438;DHT22;32137;48.728;9.142;2023-04-03T14:33:50;7.20;99.90
46438;DHT22;32137;48.728;9.142;2023-04-03T14:36:28;7.00;99.90
46438;DHT22;32137;48.728;9.142;2023-04-03T14:38:55;6.90;41.40
46438;DHT22;32137;48.728;9.142;2023-04-03T14:41:23;6.80;61.30
46438;DHT22;32137;48.728;9.142;2023-04-03T14:43:50;6.90;7.70
46438;DHT22;32137;48.728;9.142;2023-04-03T14:46:29;6.80;1.00
46438;DHT22;32137;48.728;9.142;2023-04-03T14:48:55;6.70;1.00
46438;DHT22;32137;48.728;9.142;2023-04-03T14:51:20;7.10;1.00
46438;DHT22;32137;48.728;9.142;2023-04-03T14:53:46;7.40;1.00
46438;DHT22;32137;48.728;9.142;2023-04-03T14:58:38;8.10;99.90
46438;DHT22;32137;48.728;9.142;2023-04-03T15:01:03;8.50;99.90
46438;DHT22;32137;48.728;9.142;2023-04-03T15:03:29;8.80;99.90
46438;DHT22;32137;48.728;9.142;2023-04-03T15:05:54;8.80;99.90
46438;DHT22;32137;48.728;9.142;2023-04-03T15:08:26;8.60;99.90
46438;DHT22;32137;48.728;9.142;2023-04-03T15:10:52;8.40;99.90
46438;DHT22;32137;48.728;9.142;2023-04-03T15:13:19;8.10;99.90
46438;DHT22;32137;48.728;9.142;2023-04-03T15:15:46;8.00;99.90
46438;DHT22;32137;48.728;9.142;2023-04-03T15:18:16;7.90;99.90
46438;DHT22;32137;48.728;9.142;2023-04-03T15:20:44;7.80;99.90
46438;DHT22;32137;48.728;9.142;2023-04-03T15:23:13;7.70;99.90
46438;DHT22;32137;48.728;9.142;2023-04-03T15:25:42;7.70;99.90
46438;DHT22;32137;48.728;9.142;2023-04-03T15:28:13;7.70;99.90
46438;DHT22;32137;48.728;9.142;2023-04-03T15:30:40;7.70;99.90
46438;DHT22;32137;48.728;9.142;2023-04-03T15:33:06;7.70;99.90
46438;DHT22;32137;48.728;9.142;2023-04-03T15:35:32;7.70;99.90
46438;DHT22;32137;48.728;9.142;2023-04-03T15:37:57;7.80;99.90
46438;DHT22;32137;48.728;9.142;2023-04-03T15:40:23;7.80;99.90
46438;DHT22;32137;48.728;9.142;2023-04-03T15:42:48;7.90;99.90
46438;DHT22;32137;48.728;9.142;2023-04-03T15:45:14;7.90;99.90
46438;DHT22;32137;48.728;9.142;2023-04-03T15:47:39;7.90;99.90
46438;DHT22;32137;48.728;9.142;2023-04-03T15:50:05;7.80;99.90
46438;DHT22;32137;48.728;9.142;2023-04-03T15:52:33;7.70;99.90
46438;DHT22;32137;48.728;9.142;2023-04-03T15:54:59;7.50;99.90
46438;DHT22;32137;48.728;9.142;2023-04-03T15:57:24;7.40;99.90
46438;DHT22;32137;48.728;9.142;2023-04-03T15:59:52;7.10;99.90
46438;DHT22;32137;48.728;9.142;2023-04-03T16:02:17;7.00;99.90
46438;DHT22;32137;48.728;9.142;2023-04-03T16:04:43;7.00;99.90
46438;DHT22;32137;48.728;9.142;2023-04-03T16:07:09;7.00;99.90
46438;DHT22;32137;48.728;9.142;2023-04-03T16:09:35;7.20;99.90
46438;DHT22;32137;48.728;9.142;2023-04-03T16:12:01;7.50;99.90
46438;DHT22;32137;48.728;9.142;2023-04-03T16:14:27;7.60;99.90
46438;DHT22;32137;48.728;9.142;2023-04-03T16:16:55;7.60;99.90
46438;DHT22;32137;48.728;9.142;2023-04-03T16:19:21;7.80;99.90
46438;DHT22;32137;48.728;9.142;2023-04-03T16:21:47;8.00;99.90
46438;DHT22;32137;48.728;9.142;2023-04-03T16:24:12;7.90;99.90
46438;DHT22;32137;48.728;9.142;2023-04-03T16:26:38;7.90;99.90
46438;DHT22;32137;48.728;9.142;2023-04-03T16:29:04;7.70;99.90
46438;DHT22;32137;48.728;9.142;2023-04-03T16:31:32;7.70;99.90
46438;DHT22;32137;48.728;9.142;2023-04-03T16:33:58;7.70;99.90
46438;DHT22;32137;48.728;9.142;2023-04-03T16:36:24;7.50;95.60
46438;DHT22;32137;48.728;9.142;2023-04-03T16:38:50;7.30;70.20
46438;DHT22;32137;48.728;9.142;2023-04-03T16:41:16;7.10;77.10
46438;DHT22;32137;48.728;9.142;2023-04-03T16:43:41;6.90;95.00
46438;DHT22;32137;48.728;9.142;2023-04-03T16:46:07;6.80;99.90
46438;DHT22;32137;48.728;9.142;2023-04-03T16:48:33;6.80;99.90
46438;DHT22;32137;48.728;9.142;2023-04-03T16:50:58;6.70;99.90
46438;DHT22;32137;48.728;9.142;2023-04-03T16:53:24;6.60;99.90
46438;DHT22;32137;48.728;9.142;2023-04-03T16:55:50;6.70;99.90
46438;DHT22;32137;48.728;9.142;2023-04-03T16:58:16;6.70;99.90
46438;DHT22;32137;48.728;9.142;2023-04-03T17:00:42;6.70;99.90
46438;DHT22;32137;48.728;9.142;2023-04-03T17:03:08;6.70;99.90
46438;DHT22;32137;48.728;9.142;2023-04-03T17:05:34;6.80;99.90
46438;DHT22;32137;48.728;9.142;2023-04-03T17:08:00;6.80;99.90
46438;DHT22;32137;48.728;9.142;2023-04-03T17:10:27;6.80;99.90
46438;DHT22;32137;48.728;9.142;2023-04-03T17:12:53;6.90;99.90
46438;DHT22;32137;48.728;9.142;2023-04-03T17:15:19;6.80;99.90
46438;DHT22;32137;48.728;9.142;2023-04-03T17:17:46;6.80;99.90
46438;DHT22;32137;48.728;9.142;2023-04-03T17:20:12;6.80;99.90
46438;DHT22;32137;48.728;9.142;2023-04-03T17:22:37;6.70;94.30
46438;DHT22;32137;48.728;9.142;2023-04-03T17:25:04;6.70;99.40
46438;DHT22;32137;48.728;9.142;2023-04-03T17:27:29;6.70;99.90
46438;DHT22;32137;48.728;9.142;2023-04-03T17:29:55;6.70;99.90
46438;DHT22;32137;48.728;9.142;2023-04-03T17:32:21;6.60;99.90
46438;DHT22;32137;48.728;9.142;2023-04-03T17:34:47;6.60;99.90
46438;DHT22;32137;48.728;9.142;2023-04-03T17:37:12;6.60;99.90
46438;DHT22;32137;48.728;9.142;2023-04-03T17:39:38;6.50;99.90
46438;DHT22;32137;48.728;9.142;2023-04-03T17:42:04;6.50;99.90
46438;DHT22;32137;48.728;9.142;2023-04-03T17:44:29;6.40;99.90